Time;durP1;ratioP1;P1;durP2;ratioP2;P2;SDS_P1;SDS_P2;PMS_P1;PMS_P2;Temp;Humidity;BMP_temperature;BMP_pressure;BME280_temperature;BME280_humidity;BME280_pressure;Samples;Min_cycle;Max_cycle;Signal;HPM_P1;HPM_P2
2023/02/03 00:05:45;;;;;;;6.70;3.85;;;;;;;;;;21002634;28;20387;-63
2023/02/03 00:16:07;;;;;;;9.48;4.28;;;;;;;;;;21002352;28;20058;-63
2023/02/03 00:26:29;;;;;;;8.73;4.50;;;;;;;;;;20999825;28;20048;-64
2023/02/03 00:36:50;;;;;;;6.85;3.72;;;;;;;;;;21001334;28;20040;-64
2023/02/03 00:47:12;;;;;;;10.77;4.32;;;;;;;;;;20999594;28;20048;-63
2023/02/03 00:57:33;;;;;;;10.77;5.07;;;;;;;;;;20998775;28;20041;-63
2023/02/03 01:07:48;;;;;;;9.43;5.20;;;;;;;;;;20997263;28;20060;-63
2023/02/03 01:17:59;;;;;;;9.38;5.53;;;;;;;;;;20998036;28;20055;-62
2023/02/03 01:28:09;;;;;;;11.65;5.43;;;;;;;;;;20996507;28;20055;-63
2023/02/03 01:38:11;;;;;;;10.18;5.50;;;;;;;;;;20997564;28;20117;-61
2023/02/03 01:48:13;;;;;;;8.27;4.80;;;;;;;;;;20997059;28;20411;-64
2023/02/03 01:58:19;;;;;;;10.95;5.10;;;;;;;;;;20996376;28;20041;-63
2023/02/03 02:08:21;;;;;;;10.98;4.90;;;;;;;;;;20999131;28;20497;-62
2023/02/03 02:18:36;;;;;;;9.48;5.05;;;;;;;;;;21010042;28;20052;-63
2023/02/03 02:28:42;;;;;;;8.85;4.32;;;;;;;;;;21009660;28;20483;-64
2023/02/03 02:38:53;;;;;;;5.93;3.92;;;;;;;;;;21008727;28;20398;-63
2023/02/03 02:49:02;;;;;;;7.63;4.35;;;;;;;;;;21008117;28;20056;-62
2023/02/03 02:59:08;;;;;;;7.78;4.50;;;;;;;;;;21007484;28;20052;-62
2023/02/03 03:09:28;;;;;;;9.27;4.70;;;;;;;;;;21006649;28;20051;-63
2023/02/03 03:19:38;;;;;;;8.10;4.22;;;;;;;;;;21004954;28;20045;-63
2023/02/03 03:29:49;;;;;;;6.90;4.15;;;;;;;;;;21003734;28;20052;-62
2023/02/03 03:40:10;;;;;;;11.90;3.85;;;;;;;;;;21004480;28;20109;-61
2023/02/03 03:50:46;;;;;;;10.07;4.75;;;;;;;;;;21003660;28;20052;-63
2023/02/03 04:01:08;;;;;;;9.52;4.95;;;;;;;;;;21002426;28;20048;-63
2023/02/03 04:22:01;;;;;;;7.57;4.35;;;;;;;;;;21001016;28;20048;-63
2023/02/03 04:32:19;;;;;;;8.18;4.80;;;;;;;;;;20999308;28;20474;-62
2023/02/03 04:42:31;;;;;;;8.80;4.93;;;;;;;;;;20999024;28;20513;-62
2023/02/03 04:52:34;;;;;;;8.45;4.70;;;;;;;;;;20998259;28;20155;-64
2023/02/03 05:02:37;;;;;;;8.00;4.57;;;;;;;;;;20997525;28;20052;-62
2023/02/03 05:12:40;;;;;;;8.30;4.60;;;;;;;;;;20997311;28;20087;-62
2023/02/03 05:22:42;;;;;;;8.10;3.90;;;;;;;;;;20997332;28;20457;-63
2023/02/03 05:32:44;;;;;;;6.78;3.92;;;;;;;;;;20996621;28;20053;-65
2023/02/03 05:42:48;;;;;;;14.27;4.45;;;;;;;;;;20999891;28;20052;-62
2023/02/03 05:52:50;;;;;;;9.18;4.10;;;;;;;;;;21012993;28;20500;-63
2023/02/03 06:02:53;;;;;;;6.78;3.78;;;;;;;;;;21011805;28;20566;-64
2023/02/03 06:12:55;;;;;;;10.32;4.75;;;;;;;;;;21010993;28;20055;-62
2023/02/03 06:22:57;;;;;;;10.02;4.88;;;;;;;;;;21009966;28;20105;-62
2023/02/03 06:32:59;;;;;;;8.95;4.97;;;;;;;;;;21010587;28;20090;-62
2023/02/03 06:43:02;;;;;;;7.15;4.32;;;;;;;;;;21009517;28;20052;-62
2023/02/03 06:53:04;;;;;;;9.93;5.00;;;;;;;;;;21008256;28;20088;-62
2023/02/03 07:03:06;;;;;;;10.95;5.43;;;;;;;;;;21006781;28;20040;-62
2023/02/03 07:13:08;;;;;;;12.70;4.80;;;;;;;;;;21006819;28;20048;-63
2023/02/03 07:23:11;;;;;;;10.05;5.30;;;;;;;;;;21005742;28;20533;-67
2023/02/03 07:33:14;;;;;;;13.23;5.78;;;;;;;;;;21004948;28;20462;-63
2023/02/03 07:43:17;;;;;;;9.23;4.55;;;;;;;;;;21004234;28;20044;-64
2023/02/03 07:53:19;;;;;;;8.90;4.53;;;;;;;;;;21003544;28;20484;-63
2023/02/03 08:03:22;;;;;;;9.90;4.82;;;;;;;;;;21002389;28;20474;-62
2023/02/03 08:13:24;;;;;;;10.90;5.50;;;;;;;;;;21000321;28;20413;-62
2023/02/03 08:23:26;;;;;;;9.80;4.93;;;;;;;;;;21000995;28;20102;-62
2023/02/03 08:33:28;;;;;;;11.65;5.40;;;;;;;;;;21000599;28;20111;-64
2023/02/03 08:43:30;;;;;;;11.73;3.58;;;;;;;;;;20997980;28;20040;-63
2023/02/03 08:53:35;;;;;;;12.55;4.57;;;;;;;;;;20999435;28;20044;-62
2023/02/03 09:03:38;;;;;;;9.93;3.00;;;;;;;;;;20998823;28;20076;-63
2023/02/03 09:13:44;;;;;;;17.63;4.32;;;;;;;;;;20998491;28;20062;-62
2023/02/03 09:23:47;;;;;;;9.35;3.75;;;;;;;;;;20997385;28;20467;-62
2023/02/03 09:33:49;;;;;;;14.75;5.93;;;;;;;;;;20997204;28;20494;-62
2023/02/03 09:44:04;;;;;;;13.43;4.38;;;;;;;;;;20996287;28;20132;-63
2023/02/03 09:54:11;;;;;;;10.20;4.60;;;;;;;;;;20996355;28;20049;-63
2023/02/03 10:04:26;;;;;;;9.25;3.80;;;;;;;;;;20994784;28;20421;-63
2023/02/03 10:14:31;;;;;;;9.90;4.50;;;;;;;;;;20995993;28;20044;-63
2023/02/03 10:24:50;;;;;;;12.27;4.57;;;;;;;;;;20994810;28;20127;-62
2023/02/03 10:34:52;;;;;;;8.18;2.92;;;;;;;;;;21004197;28;20099;-64
2023/02/03 10:44:58;;;;;;;9.68;2.85;;;;;;;;;;21008342;28;20513;-63
2023/02/03 10:55:28;;;;;;;7.43;2.58;;;;;;;;;;21008100;28;20409;-70
2023/02/03 11:05:31;;;;;;;7.05;2.70;;;;;;;;;;21006761;28;20041;-69
2023/02/03 11:15:34;;;;;;;6.32;2.28;;;;;;;;;;21006236;28;20486;-65
2023/02/03 11:25:36;;;;;;;10.75;4.13;;;;;;;;;;21003497;28;20056;-66
2023/02/03 11:35:53;;;;;;;6.43;3.33;;;;;;;;;;21003981;28;20059;-66
2023/02/03 11:46:00;;;;;;;11.18;3.20;;;;;;;;;;21003835;28;20076;-72
2023/02/03 11:56:08;;;;;;;7.78;4.13;;;;;;;;;;20951466;28;20075;-71
2023/02/03 12:06:22;;;;;;;7.13;3.92;;;;;;;;;;20921762;28;20048;-68
2023/02/03 12:16:47;;;;;;;10.10;3.38;;;;;;;;;;20919234;28;20479;-62
2023/02/03 12:27:08;;;;;;;12.52;4.55;;;;;;;;;;20917399;28;20114;-68
2023/02/03 12:37:18;;;;;;;16.13;4.65;;;;;;;;;;20916415;28;20045;-64
2023/02/03 12:47:20;;;;;;;11.30;4.40;;;;;;;;;;20916798;28;20430;-65
2023/02/03 12:57:32;;;;;;;9.88;4.57;;;;;;;;;;20913771;28;20094;-66
2023/02/03 13:07:43;;;;;;;10.05;4.47;;;;;;;;;;20914678;28;20410;-65
2023/02/03 13:17:45;;;;;;;9.18;4.00;;;;;;;;;;20914000;28;20051;-66
2023/02/03 13:28:07;;;;;;;6.63;3.55;;;;;;;;;;20912536;28;20045;-64
2023/02/03 13:38:09;;;;;;;7.10;3.55;;;;;;;;;;20911691;28;20061;-65
2023/02/03 13:48:16;;;;;;;9.02;3.40;;;;;;;;;;20912235;28;20524;-64
2023/02/03 13:58:26;;;;;;;6.57;3.55;;;;;;;;;;20913169;28;20445;-67
2023/02/03 14:08:28;;;;;;;8.40;2.73;;;;;;;;;;20921932;28;20048;-66
2023/02/03 14:18:31;;;;;;;5.32;2.58;;;;;;;;;;20928016;28;20063;-67
2023/02/03 14:28:43;;;;;;;6.70;3.10;;;;;;;;;;20927520;28;20076;-69
2023/02/03 14:38:45;;;;;;;8.85;3.17;;;;;;;;;;20927036;28;20207;-66
2023/02/03 14:49:06;;;;;;;8.60;3.25;;;;;;;;;;20925192;28;20415;-67
2023/02/03 14:59:09;;;;;;;6.95;2.50;;;;;;;;;;20924518;28;20094;-66
2023/02/03 15:09:29;;;;;;;2.70;0.88;;;;;;;;;;20923394;28;20098;-65
2023/02/03 15:19:31;;;;;;;;;;;;;;;;;;20923371;28;20045;-63
2023/02/03 15:29:35;;;;;;;11.82;5.15;;;;;;;;;;20921596;28;19928;-65
2023/02/03 15:39:54;;;;;;;2.22;1.20;;;;;;;;;;20921837;28;20392;-69
2023/02/03 15:50:02;;;;;;;3.17;0.70;;;;;;;;;;20920433;28;20074;-67
2023/02/03 16:00:25;;;;;;;2.00;0.40;;;;;;;;;;20918707;28;20122;-64
2023/02/03 16:10:31;;;;;;;4.20;0.73;;;;;;;;;;20919490;28;20478;-65
2023/02/03 16:20:36;;;;;;;0.70;0.40;;;;;;;;;;20993941;28;20084;-65
2023/02/03 16:51:19;;;;;;;3.22;1.50;;;;;;;;;;20997637;28;20089;-75
2023/02/03 17:01:22;;;;;;;2.72;1.02;;;;;;;;;;20985847;28;20504;-72
2023/02/03 17:11:25;;;;;;;4.38;1.40;;;;;;;;;;20998659;28;20056;-74
2023/02/03 17:21:28;;;;;;;4.13;1.27;;;;;;;;;;20984390;28;20446;-69
2023/02/03 17:31:31;;;;;;;5.20;2.00;;;;;;;;;;20992891;28;20478;-71
2023/02/03 17:41:34;;;;;;;5.70;1.92;;;;;;;;;;20996629;28;20084;-74
2023/02/03 17:51:36;;;;;;;9.85;3.40;;;;;;;;;;20995329;28;20059;-70
2023/02/03 18:01:38;;;;;;;9.10;2.70;;;;;;;;;;20997326;28;20509;-67
2023/02/03 18:11:40;;;;;;;11.30;3.97;;;;;;;;;;20992312;28;20056;-68
2023/02/03 18:21:42;;;;;;;9.32;4.50;;;;;;;;;;20995048;28;20055;-68
2023/02/03 18:31:45;;;;;;;19.77;9.35;;;;;;;;;;20996142;28;20044;-78
2023/02/03 18:41:47;;;;;;;18.13;8.20;;;;;;;;;;20996053;28;20410;-68
2023/02/03 18:51:49;;;;;;;17.65;8.30;;;;;;;;;;20996976;28;20060;-73
2023/02/03 19:01:51;;;;;;;11.32;5.38;;;;;;;;;;21009845;28;20075;-76
2023/02/03 19:11:53;;;;;;;17.15;6.70;;;;;;;;;;20993181;28;20152;-66
2023/02/03 19:21:57;;;;;;;10.00;4.38;;;;;;;;;;20989147;28;20041;-68
2023/02/03 19:32:00;;;;;;;10.27;3.30;;;;;;;;;;20989661;28;20413;-68
2023/02/03 19:42:02;;;;;;;11.23;3.97;;;;;;;;;;21004729;28;20063;-69
2023/02/03 19:52:06;;;;;;;9.15;2.97;;;;;;;;;;21004462;28;20458;-67
2023/02/03 20:02:08;;;;;;;11.57;2.90;;;;;;;;;;21003141;28;20123;-67
2023/02/03 20:12:11;;;;;;;4.75;2.72;;;;;;;;;;21002744;28;20051;-68
2023/02/03 20:22:13;;;;;;;4.00;1.90;;;;;;;;;;21003756;28;20505;-69
2023/02/03 20:32:15;;;;;;;4.95;2.22;;;;;;;;;;21001439;28;20048;-68
2023/02/03 20:42:17;;;;;;;6.55;2.25;;;;;;;;;;20999047;28;20498;-71
2023/02/03 20:52:20;;;;;;;5.13;1.88;;;;;;;;;;20999165;28;20087;-68
2023/02/03 21:02:32;;;;;;;7.32;2.63;;;;;;;;;;20997616;28;20044;-68
2023/02/03 21:12:34;;;;;;;12.45;5.60;;;;;;;;;;20997259;28;20121;-68
2023/02/03 21:22:36;;;;;;;11.95;3.83;;;;;;;;;;20999042;28;20044;-69
2023/02/03 21:32:39;;;;;;;8.48;2.72;;;;;;;;;;20998419;28;20044;-68
2023/02/03 21:42:41;;;;;;;8.50;2.65;;;;;;;;;;20997518;28;20135;-67
2023/02/03 21:52:43;;;;;;;18.48;10.07;;;;;;;;;;20998358;28;20048;-68
2023/02/03 22:02:56;;;;;;;6.38;2.13;;;;;;;;;;20994434;28;20048;-68
2023/02/03 22:12:57;;;;;;;8.93;2.63;;;;;;;;;;20996932;28;20122;-68
2023/02/03 22:23:00;;;;;;;8.02;3.33;;;;;;;;;;20995408;28;20440;-69
2023/02/03 22:33:02;;;;;;;10.50;4.50;;;;;;;;;;21005677;28;20547;-69
2023/02/03 22:43:04;;;;;;;8.93;4.45;;;;;;;;;;21008133;28;20092;-68
2023/02/03 22:53:08;;;;;;;11.45;3.80;;;;;;;;;;21007801;28;20055;-69
2023/02/03 23:03:10;;;;;;;9.95;5.40;;;;;;;;;;21008817;28;20057;-69
2023/02/03 23:13:11;;;;;;;10.45;4.40;;;;;;;;;;21005060;28;20059;-68
2023/02/03 23:23:17;;;;;;;8.10;3.67;;;;;;;;;;21006664;28;20060;-67
2023/02/03 23:33:21;;;;;;;9.77;4.22;;;;;;;;;;21006197;28;20053;-67
2023/02/03 23:43:23;;;;;;;7.50;3.25;;;;;;;;;;21004473;28;20391;-68
2023/02/03 23:53:26;;;;;;;7.05;3.10;;;;;;;;;;21003658;28;20091;-69
